createdAt,value
2024-01-22T00:01:00.824Z,96673.84
2024-01-22T00:03:27.298Z,96671.98
2024-01-22T00:05:53.885Z,96672.20
2024-01-22T00:08:21.469Z,96667.66
2024-01-22T00:10:47.964Z,96650.52
2024-01-22T00:13:14.426Z,96670.05
2024-01-22T00:15:40.887Z,96673.20
2024-01-22T00:18:07.471Z,96661.43
2024-01-22T00:20:34.032Z,96672.89
2024-01-22T00:23:00.479Z,96667.44
2024-01-22T00:25:26.942Z,96662.66
2024-01-22T00:27:53.394Z,96653.96
2024-01-22T00:30:19.922Z,96647.73
2024-01-22T00:32:46.490Z,96642.05
2024-01-22T00:35:13.114Z,96643.66
2024-01-22T00:37:39.819Z,96634.74
2024-01-22T00:40:07.144Z,96625.60
2024-01-22T00:42:33.611Z,96614.68
2024-01-22T00:45:00.104Z,96627.82
2024-01-22T00:47:26.748Z,96621.83
2024-01-22T00:49:53.395Z,96623.67
2024-01-22T00:52:19.866Z,96624.14
2024-01-22T00:54:46.379Z,96607.08
2024-01-22T00:57:13.034Z,96602.30
2024-01-22T00:59:39.598Z,96613.98
2024-01-22T01:02:06.885Z,96609.99
2024-01-22T01:04:33.353Z,96608.08
2024-01-22T01:06:59.783Z,96604.46
2024-01-22T01:09:26.177Z,96599.63
2024-01-22T01:11:52.850Z,96604.70
2024-01-22T01:14:19.281Z,96585.17
2024-01-22T01:16:45.730Z,96607.92
2024-01-22T01:19:12.247Z,96604.46
2024-01-22T01:21:39.622Z,96605.70
2024-01-22T01:24:06.445Z,96605.16
2024-01-22T01:26:32.965Z,96598.95
2024-01-22T01:28:59.536Z,96594.94
2024-01-22T01:31:29.642Z,96596.92
2024-01-22T01:33:56.432Z,96596.92
2024-01-22T01:36:22.991Z,96593.06
2024-01-22T01:38:49.558Z,96590.16
2024-01-22T01:41:16.052Z,96586.31
2024-01-22T01:43:42.507Z,96579.92
2024-01-22T01:46:08.971Z,96577.92
2024-01-22T01:48:35.590Z,96551.88
2024-01-22T01:51:02.230Z,96568.09
2024-01-22T01:53:29.000Z,96561.64
2024-01-22T01:55:55.414Z,96563.02
2024-01-22T01:58:21.932Z,96564.10
2024-01-22T02:00:49.953Z,96567.56
2024-01-22T02:03:16.536Z,96564.56
2024-01-22T02:05:43.072Z,96541.20
2024-01-22T02:08:09.555Z,96556.41
2024-01-22T02:10:35.986Z,96554.80
2024-01-22T02:13:05.181Z,96552.57
2024-01-22T02:15:31.665Z,96541.44
2024-01-22T02:18:01.885Z,96538.27
2024-01-22T02:20:29.017Z,96537.73
2024-01-22T02:22:55.556Z,96537.20
2024-01-22T02:25:22.057Z,96531.67
2024-01-22T02:27:48.480Z,96533.20
2024-01-22T02:30:15.249Z,96532.20
2024-01-22T02:32:41.820Z,96530.89
2024-01-22T02:35:08.357Z,96530.27
2024-01-22T02:37:34.805Z,96520.52
2024-01-22T02:40:01.242Z,96517.98
2024-01-22T02:42:27.816Z,96512.45
2024-01-22T02:44:54.461Z,96489.02
2024-01-22T02:47:20.910Z,96499.22
2024-01-22T02:49:47.324Z,96498.15
2024-01-22T02:52:13.814Z,96491.99
2024-01-22T02:54:40.273Z,96488.00
2024-01-22T02:57:06.844Z,96483.00
2024-01-22T02:59:37.317Z,96479.08
2024-01-22T03:02:04.655Z,96481.77
2024-01-22T03:04:31.283Z,96474.39
2024-01-22T03:06:58.246Z,96437.09
2024-01-22T03:09:25.920Z,96475.55
2024-01-22T03:11:52.467Z,96473.70
2024-01-22T03:14:18.901Z,96468.46
2024-01-22T03:16:45.298Z,96466.92
2024-01-22T03:19:12.410Z,96459.93
2024-01-22T03:21:38.933Z,96461.99
2024-01-22T03:24:06.139Z,96453.63
2024-01-22T03:26:32.556Z,96453.02
2024-01-22T03:28:59.117Z,96452.94
2024-01-22T03:31:28.938Z,96460.16
2024-01-22T03:33:56.126Z,96459.02
2024-01-22T03:36:23.466Z,96455.55
2024-01-22T03:38:50.327Z,96455.86
2024-01-22T03:41:16.750Z,96457.25
2024-01-22T03:43:43.745Z,96428.17
2024-01-22T03:46:11.633Z,96440.60
2024-01-22T03:48:38.206Z,96432.77
2024-01-22T03:51:05.175Z,96443.58
2024-01-22T03:53:31.691Z,96441.81
2024-01-22T03:55:58.261Z,96439.05
2024-01-22T03:58:24.933Z,96432.88
2024-01-22T04:00:51.460Z,96431.33
2024-01-22T04:03:18.034Z,96425.27
2024-01-22T04:05:44.624Z,96417.66
2024-01-22T04:08:11.190Z,96402.33
2024-01-22T04:10:38.059Z,96421.81
2024-01-22T04:13:04.678Z,96415.51
2024-01-22T04:15:31.110Z,96409.35
2024-01-22T04:17:57.642Z,96394.14
2024-01-22T04:20:24.161Z,96391.75
2024-01-22T04:22:52.438Z,96394.28
2024-01-22T04:25:19.318Z,96390.98
2024-01-22T04:27:46.132Z,96383.75
2024-01-22T04:30:13.088Z,96381.67
2024-01-22T04:32:39.691Z,96369.69
2024-01-22T04:35:06.469Z,96365.70
2024-01-22T04:37:32.951Z,96358.61
2024-01-22T04:40:10.275Z,96345.06
2024-01-22T04:42:36.721Z,96357.94
2024-01-22T04:45:03.311Z,96348.86
2024-01-22T04:47:29.825Z,96345.61
2024-01-22T04:49:56.242Z,96337.92
2024-01-22T04:52:22.719Z,96332.67
2024-01-22T04:54:49.132Z,96317.59
2024-01-22T04:57:15.587Z,96313.58
2024-01-22T04:59:42.096Z,96316.55
2024-01-22T05:02:08.530Z,96318.83
2024-01-22T05:04:35.072Z,96315.15
2024-01-22T05:07:01.525Z,96310.45
2024-01-22T05:09:27.998Z,96303.14
2024-01-22T05:11:54.425Z,96300.19
2024-01-22T05:14:20.877Z,96294.11
2024-01-22T05:16:47.334Z,96293.55
2024-01-22T05:19:13.911Z,96278.77
2024-01-22T05:21:40.493Z,96304.64
2024-01-22T05:24:07.589Z,96294.27
2024-01-22T05:26:34.063Z,96294.09
2024-01-22T05:29:00.460Z,96293.36
2024-01-22T05:31:26.893Z,96292.74
2024-01-22T05:33:53.377Z,96290.29
2024-01-22T05:36:19.942Z,96268.08
2024-01-22T05:38:46.417Z,96279.33
2024-01-22T05:41:13.125Z,96285.08
2024-01-22T05:43:39.551Z,96280.85
2024-01-22T05:46:06.108Z,96263.10
2024-01-22T05:48:34.468Z,96288.86
2024-01-22T05:51:02.416Z,96293.34
2024-01-22T05:53:29.221Z,96304.38
2024-01-22T05:55:55.637Z,96301.37
2024-01-22T05:58:23.738Z,96270.29
2024-01-22T06:00:50.256Z,96287.81
2024-01-22T06:03:16.894Z,96308.35
2024-01-22T06:05:43.382Z,96309.73
2024-01-22T06:08:09.826Z,96295.05
2024-01-22T06:10:36.622Z,96306.20
2024-01-22T06:13:03.138Z,96307.27
2024-01-22T06:15:29.633Z,96300.23
2024-01-22T06:17:56.270Z,96293.66
2024-01-22T06:20:22.768Z,96294.97
2024-01-22T06:22:49.191Z,96290.83
2024-01-22T06:25:15.723Z,96282.43
2024-01-22T06:27:45.353Z,96272.92
2024-01-22T06:30:13.985Z,96283.84
2024-01-22T06:32:40.671Z,96281.08
2024-01-22T06:35:07.531Z,96273.85
2024-01-22T06:37:35.325Z,96245.20
2024-01-22T06:40:02.118Z,96268.47
2024-01-22T06:42:37.144Z,96256.00
2024-01-22T06:45:06.327Z,96253.16
2024-01-22T06:47:35.340Z,96257.60
2024-01-22T06:50:02.668Z,96243.67
2024-01-22T06:52:29.202Z,96252.83
2024-01-22T06:54:57.114Z,96249.28
2024-01-22T06:57:23.743Z,96231.05
2024-01-22T06:59:51.349Z,96224.14
2024-01-22T07:02:18.712Z,96236.14
2024-01-22T07:04:47.169Z,96231.17
2024-01-22T07:07:14.851Z,96244.44
2024-01-22T07:09:41.325Z,96252.58
2024-01-22T07:12:08.046Z,96244.67
2024-01-22T07:14:34.893Z,96247.52
2024-01-22T07:17:01.427Z,96255.90
2024-01-22T07:19:28.470Z,96248.13
2024-01-22T07:21:55.206Z,96233.52
2024-01-22T07:24:21.915Z,96251.75
2024-01-22T07:26:48.470Z,96250.85
2024-01-22T07:29:14.945Z,96248.70
2024-01-22T07:31:41.429Z,96249.72
2024-01-22T07:34:08.160Z,96251.12
2024-01-22T07:36:34.698Z,96254.60
2024-01-22T07:39:01.257Z,96255.61
2024-01-22T07:41:27.721Z,96255.79
2024-01-22T07:43:54.141Z,96264.95
2024-01-22T07:46:20.660Z,96257.50
2024-01-22T07:48:47.227Z,96234.30
2024-01-22T07:51:14.751Z,96249.52
2024-01-22T07:53:41.419Z,96233.94
2024-01-22T07:56:08.068Z,96255.66
2024-01-22T07:58:34.511Z,96252.75
2024-01-22T08:01:00.951Z,96253.43
2024-01-22T08:03:27.573Z,96252.27
2024-01-22T08:05:54.213Z,96254.73
2024-01-22T08:08:20.821Z,96253.66
2024-01-22T08:10:47.455Z,96261.42
2024-01-22T08:13:14.392Z,96246.06
2024-01-22T08:15:40.805Z,96259.05
2024-01-22T08:18:07.311Z,96269.61
2024-01-22T08:20:36.193Z,96289.09
2024-01-22T08:23:02.838Z,96296.06
2024-01-22T08:25:29.482Z,96294.46
2024-01-22T08:27:56.392Z,96300.52
2024-01-22T08:30:23.191Z,96316.08
2024-01-22T08:32:50.206Z,96324.45
2024-01-22T08:35:18.166Z,96324.23
2024-01-22T08:37:49.060Z,96318.41
2024-01-22T08:40:18.435Z,96309.57
2024-01-22T08:42:46.789Z,96287.14
2024-01-22T08:45:13.723Z,96282.29
2024-01-22T08:47:40.241Z,96270.09
2024-01-22T08:50:07.353Z,96270.69
2024-01-22T08:52:33.857Z,96260.66
2024-01-22T08:55:00.381Z,96265.55
2024-01-22T08:57:26.849Z,96263.47
2024-01-22T08:59:53.341Z,96259.25
2024-01-22T09:02:19.735Z,96269.70
2024-01-22T09:04:46.182Z,96254.10
2024-01-22T09:07:12.573Z,96264.41
2024-01-22T09:09:38.985Z,96265.64
2024-01-22T09:12:05.477Z,96266.02
2024-01-22T09:14:31.833Z,96266.95
2024-01-22T09:16:58.209Z,96256.27
2024-01-22T09:19:25.091Z,96257.48
2024-01-22T09:21:51.601Z,96254.02
2024-01-22T09:24:18.841Z,96248.67
2024-01-22T09:26:45.404Z,96245.80
2024-01-22T09:29:11.948Z,96244.02
2024-01-22T09:31:38.293Z,96214.63
2024-01-22T09:34:05.901Z,96246.91
2024-01-22T09:36:33.950Z,96245.42
2024-01-22T09:39:00.389Z,96245.50
2024-01-22T09:41:28.978Z,96234.33
2024-01-22T09:43:55.596Z,96221.64
2024-01-22T09:46:23.187Z,96230.55
2024-01-22T09:48:51.197Z,96226.73
2024-01-22T09:51:18.211Z,96220.30
2024-01-22T09:53:47.456Z,96216.15
2024-01-22T09:56:17.785Z,96198.55
2024-01-22T09:58:46.871Z,96182.41
2024-01-22T10:01:13.572Z,96211.17
2024-01-22T10:03:40.461Z,96203.98
2024-01-22T10:06:07.411Z,96203.44
2024-01-22T10:08:33.891Z,96180.42
2024-01-22T10:11:00.397Z,96188.88
2024-01-22T10:13:26.923Z,96182.03
2024-01-22T10:15:53.411Z,96173.02
2024-01-22T10:18:20.383Z,96166.44
2024-01-22T10:20:47.988Z,96162.10
2024-01-22T10:23:15.267Z,96154.24
2024-01-22T10:25:42.062Z,96156.64
2024-01-22T10:28:18.749Z,96133.10
2024-01-22T10:30:46.486Z,96141.44
2024-01-22T10:33:19.284Z,96142.18
2024-01-22T10:35:47.499Z,96139.94
2024-01-22T10:38:19.939Z,96122.46
2024-01-22T10:40:47.334Z,96127.75
2024-01-22T10:43:28.656Z,96121.49
2024-01-22T10:45:57.902Z,96110.63
2024-01-22T10:48:38.272Z,96110.09
2024-01-22T10:51:11.196Z,96086.95
2024-01-22T10:53:40.067Z,96101.86
2024-01-22T10:56:20.114Z,96093.67
2024-01-22T10:58:49.081Z,96094.19
2024-01-22T11:01:23.031Z,96087.77
2024-01-22T11:03:53.306Z,96101.68
2024-01-22T11:06:22.837Z,96104.33
2024-01-22T11:08:51.682Z,96097.41
2024-01-22T11:11:20.255Z,96084.66
2024-01-22T11:13:59.887Z,96082.88
2024-01-22T11:16:26.817Z,96062.34
2024-01-22T11:18:57.409Z,96068.16
2024-01-22T11:21:24.193Z,96057.80
2024-01-22T11:24:17.413Z,96052.21
2024-01-22T11:26:53.481Z,96047.42
2024-01-22T11:29:24.499Z,96024.00
2024-01-22T11:31:51.188Z,96034.79
2024-01-22T11:34:42.329Z,96030.55
2024-01-22T11:37:11.788Z,96027.80
2024-01-22T11:39:44.263Z,96025.55
2024-01-22T11:42:17.518Z,96021.46
2024-01-22T11:44:47.106Z,96020.66
2024-01-22T11:47:15.516Z,96013.77
2024-01-22T11:49:42.499Z,96005.91
2024-01-22T11:52:12.486Z,95973.17
2024-01-22T11:54:40.065Z,95984.61
2024-01-22T11:57:06.741Z,95975.17
2024-01-22T11:59:33.519Z,95957.80
2024-01-22T12:02:10.821Z,95971.81
2024-01-22T12:04:37.471Z,95968.71
2024-01-22T12:07:03.881Z,95961.11
2024-01-22T12:09:36.600Z,95960.86
2024-01-22T12:12:05.142Z,95956.84
2024-01-22T12:14:31.681Z,95943.80
2024-01-22T12:17:04.532Z,95941.99
2024-01-22T12:19:31.163Z,95931.50
2024-01-22T12:21:57.824Z,95927.19
2024-01-22T12:24:24.422Z,95927.80
2024-01-22T12:26:53.752Z,95920.83
2024-01-22T12:29:23.689Z,95918.17
2024-01-22T12:31:50.464Z,95901.17
2024-01-22T12:34:18.469Z,95912.52
2024-01-22T12:36:45.166Z,95912.75
2024-01-22T12:39:20.068Z,95905.22
2024-01-22T12:41:46.603Z,95894.54
2024-01-22T12:44:16.026Z,95879.63
2024-01-22T12:46:42.640Z,95869.04
2024-01-22T12:49:09.286Z,95888.27
2024-01-22T12:51:35.877Z,95891.51
2024-01-22T12:54:02.460Z,95881.15
2024-01-22T12:56:28.978Z,95877.39
2024-01-22T12:58:55.629Z,95874.27
2024-01-22T13:03:49.267Z,95876.45
2024-01-22T13:06:15.929Z,95868.40
2024-01-22T13:08:42.497Z,95862.70
2024-01-22T13:11:09.831Z,95855.01
2024-01-22T13:13:36.514Z,95860.69
2024-01-22T13:16:13.142Z,95861.09
2024-01-22T13:18:44.762Z,95863.77
2024-01-22T13:21:12.642Z,95866.31
2024-01-22T13:23:39.256Z,95854.17
2024-01-22T13:26:05.927Z,95853.39
2024-01-22T13:28:32.878Z,95852.55
2024-01-22T13:30:59.474Z,95854.34
2024-01-22T13:33:26.255Z,95849.78
2024-01-22T13:35:52.889Z,95851.84
2024-01-22T13:38:19.816Z,95853.79
2024-01-22T13:40:46.372Z,95857.39
2024-01-22T13:43:13.767Z,95855.58
2024-01-22T13:45:40.263Z,95864.94
2024-01-22T13:48:07.429Z,95861.83
2024-01-22T13:50:34.079Z,95869.71
2024-01-22T13:53:03.651Z,95865.65
2024-01-22T13:55:33.082Z,95865.74
2024-01-22T13:57:59.665Z,95856.28
2024-01-22T14:00:26.483Z,95869.29
2024-01-22T14:02:53.217Z,95861.84
2024-01-22T14:05:20.006Z,95863.30
2024-01-22T14:07:48.279Z,95872.77
2024-01-22T14:10:15.630Z,95863.40
2024-01-22T14:12:42.638Z,95853.05
2024-01-22T14:15:11.124Z,95839.98
2024-01-22T14:17:37.880Z,95844.15
2024-01-22T14:20:05.361Z,95843.99
2024-01-22T14:22:31.992Z,95829.16
2024-01-22T14:24:58.751Z,95840.67
2024-01-22T14:27:25.330Z,95829.10
2024-01-22T14:29:52.092Z,95821.74
2024-01-22T14:32:18.556Z,95806.27
2024-01-22T14:34:45.698Z,95823.36
2024-01-22T14:37:12.998Z,95804.52
2024-01-22T14:39:39.507Z,95814.55
2024-01-22T14:42:06.311Z,95811.17
2024-01-22T14:44:32.887Z,95816.33
2024-01-22T14:46:59.366Z,95820.09
2024-01-22T14:49:26.076Z,95823.01
2024-01-22T14:51:52.717Z,95816.97
2024-01-22T14:54:19.300Z,95823.14
2024-01-22T14:56:45.937Z,95824.36
2024-01-22T14:59:12.635Z,95830.98
2024-01-22T15:01:39.136Z,95825.41
2024-01-22T15:04:10.681Z,95832.02
2024-01-22T15:06:39.446Z,95838.67
2024-01-22T15:09:13.914Z,95826.89
2024-01-22T15:11:40.396Z,95827.85
2024-01-22T15:14:09.092Z,95829.79
2024-01-22T15:16:35.549Z,95822.27
2024-01-22T15:19:02.209Z,95812.65
2024-01-22T15:21:28.729Z,95796.31
2024-01-22T15:23:55.719Z,95780.98
2024-01-22T15:26:23.396Z,95784.98
2024-01-22T15:28:50.670Z,95789.67
2024-01-22T15:31:17.157Z,95788.45
2024-01-22T15:33:44.115Z,95780.48
2024-01-22T15:36:10.980Z,95781.48
2024-01-22T15:38:45.880Z,95772.61
2024-01-22T15:41:13.608Z,95771.14
2024-01-22T15:43:41.631Z,95761.68
2024-01-22T15:46:08.728Z,95762.64
2024-01-22T15:48:35.363Z,95783.10
2024-01-22T15:51:02.415Z,95787.15
2024-01-22T15:53:28.878Z,95783.05
2024-01-22T15:55:55.335Z,95780.35
2024-01-22T15:58:21.889Z,95791.58
2024-01-22T16:00:48.717Z,95799.70
2024-01-22T16:03:15.375Z,95794.27
2024-01-22T16:05:44.128Z,95800.83
2024-01-22T16:08:10.908Z,95803.74
2024-01-22T16:10:37.418Z,95799.13
2024-01-22T16:13:04.210Z,95785.86
2024-01-22T16:15:30.986Z,95806.69
2024-01-22T16:17:57.791Z,95804.02
2024-01-22T16:20:24.513Z,95792.32
2024-01-22T16:22:52.031Z,95775.09
2024-01-22T16:25:19.887Z,95796.21
2024-01-22T16:27:48.170Z,95794.31
2024-01-22T16:30:15.488Z,95784.27
2024-01-22T16:32:42.601Z,95788.83
2024-01-22T16:35:10.104Z,95786.13
2024-01-22T16:37:36.556Z,95796.73
2024-01-22T16:40:06.705Z,95786.88
2024-01-22T16:42:33.266Z,95786.48
2024-01-22T16:44:59.772Z,95788.48
2024-01-22T16:47:26.280Z,95798.15
2024-01-22T16:49:54.704Z,95790.04
2024-01-22T16:52:21.226Z,95798.30
2024-01-22T16:54:47.630Z,95793.30
2024-01-22T16:57:14.073Z,95803.72
2024-01-22T16:59:40.509Z,95796.87
2024-01-22T17:02:06.968Z,95806.23
2024-01-22T17:04:33.519Z,95808.36
2024-01-22T17:07:07.005Z,95812.98
2024-01-22T17:09:33.663Z,95837.33
2024-01-22T17:12:00.709Z,95849.14
2024-01-22T17:14:27.500Z,95848.45
2024-01-22T17:16:53.987Z,95858.09
2024-01-22T17:19:20.715Z,95879.11
2024-01-22T17:21:48.275Z,95887.94
2024-01-22T17:24:15.664Z,95889.79
2024-01-22T17:26:42.196Z,95901.64
2024-01-22T17:29:08.886Z,95905.46
2024-01-22T17:31:35.813Z,95909.88
2024-01-22T17:34:04.494Z,95912.41
2024-01-22T17:36:32.765Z,95922.16
2024-01-22T17:38:59.337Z,95932.27
2024-01-22T17:41:26.153Z,95935.09
2024-01-22T17:43:53.735Z,95932.08
2024-01-22T17:46:20.378Z,95936.66
2024-01-22T17:48:49.956Z,95941.01
2024-01-22T17:51:16.696Z,95953.36
2024-01-22T17:53:43.202Z,95963.98
2024-01-22T17:56:09.645Z,95949.16
2024-01-22T17:58:36.078Z,95963.58
2024-01-22T18:01:02.669Z,95975.35
2024-01-22T18:03:29.277Z,95957.17
2024-01-22T18:05:55.822Z,95977.68
2024-01-22T18:08:22.315Z,95984.93
2024-01-22T18:10:49.649Z,96000.10
2024-01-22T18:13:16.248Z,96005.87
2024-01-22T18:15:42.825Z,96016.94
2024-01-22T18:18:09.388Z,96015.89
2024-01-22T18:20:35.979Z,96022.11
2024-01-22T18:23:02.528Z,96029.83
2024-01-22T18:25:28.983Z,96028.81
2024-01-22T18:27:56.311Z,96017.98
2024-01-22T18:30:22.874Z,96046.80
2024-01-22T18:32:49.436Z,96061.34
2024-01-22T18:35:16.141Z,96065.36
2024-01-22T18:37:42.906Z,96075.14
2024-01-22T18:40:10.370Z,96075.05
2024-01-22T18:42:36.907Z,96088.23
2024-01-22T18:45:03.733Z,96095.43
2024-01-22T18:47:30.269Z,96102.88
2024-01-22T18:49:56.743Z,96097.26
2024-01-22T18:52:23.227Z,96106.62
2024-01-22T18:54:49.659Z,96118.95
2024-01-22T18:57:16.117Z,96127.14
2024-01-22T18:59:46.542Z,96126.59
2024-01-22T19:02:14.819Z,96138.96
2024-01-22T19:04:41.830Z,96125.58
2024-01-22T19:07:09.320Z,96138.08
2024-01-22T19:09:35.778Z,96149.70
2024-01-22T19:12:03.580Z,96164.48
2024-01-22T19:14:30.242Z,96170.34
2024-01-22T19:16:56.908Z,96154.98
2024-01-22T19:19:23.341Z,96173.15
2024-01-22T19:21:49.873Z,96179.14
2024-01-22T19:24:16.343Z,96176.97
2024-01-22T19:26:42.877Z,96179.82
2024-01-22T19:29:09.454Z,96153.77
2024-01-22T19:31:35.928Z,96174.48
2024-01-22T19:34:02.461Z,96159.85
2024-01-22T19:36:29.083Z,96171.55
2024-01-22T19:38:55.617Z,96164.13
2024-01-22T19:41:22.059Z,96166.66
2024-01-22T19:43:48.457Z,96151.50
2024-01-22T19:46:18.627Z,96144.33
2024-01-22T19:48:46.942Z,96162.80
2024-01-22T19:51:13.479Z,96177.23
2024-01-22T19:53:39.967Z,96193.06
2024-01-22T19:56:06.682Z,96195.95
2024-01-22T19:58:33.080Z,96202.80
2024-01-22T20:00:59.552Z,96181.91
2024-01-22T20:03:26.197Z,96194.02
2024-01-22T20:05:53.032Z,96223.41
2024-01-22T20:08:19.635Z,96220.34
2024-01-22T20:10:46.058Z,96215.50
2024-01-22T20:13:12.520Z,96220.57
2024-01-22T20:15:39.091Z,96229.17
2024-01-22T20:18:06.161Z,96221.48
2024-01-22T20:20:32.905Z,96200.23
2024-01-22T20:22:59.321Z,96226.52
2024-01-22T20:25:25.767Z,96188.15
2024-01-22T20:27:52.302Z,96216.27
2024-01-22T20:30:18.781Z,96225.56
2024-01-22T20:32:45.246Z,96230.70
2024-01-22T20:35:11.978Z,96229.87
2024-01-22T20:37:38.884Z,96224.95
2024-01-22T20:40:05.939Z,96206.37
2024-01-22T20:42:32.502Z,96230.81
2024-01-22T20:44:58.982Z,96216.84
2024-01-22T20:47:26.059Z,96230.79
2024-01-22T20:49:53.291Z,96230.17
2024-01-22T20:52:20.076Z,96217.18
2024-01-22T20:54:47.307Z,96230.77
2024-01-22T20:57:14.182Z,96228.11
2024-01-22T20:59:40.703Z,96233.56
2024-01-22T21:02:07.228Z,96223.41
2024-01-22T21:04:33.968Z,96231.14
2024-01-22T21:07:00.710Z,96229.54
2024-01-22T21:09:27.430Z,96227.54
2024-01-22T21:11:53.918Z,96233.16
2024-01-22T21:14:20.579Z,96230.17
2024-01-22T21:16:47.640Z,96229.59
2024-01-22T21:19:15.855Z,96235.11
2024-01-22T21:21:43.023Z,96244.05
2024-01-22T21:24:09.849Z,96243.36
2024-01-22T21:26:36.335Z,96246.02
2024-01-22T21:29:04.693Z,96237.23
2024-01-22T21:31:31.229Z,96242.02
2024-01-22T21:33:58.252Z,96254.02
2024-01-22T21:36:25.934Z,96258.87
2024-01-22T21:38:52.593Z,96268.58
2024-01-22T21:41:19.006Z,96270.20
2024-01-22T21:43:45.424Z,96270.39
2024-01-22T21:46:11.828Z,96284.06
2024-01-22T21:48:38.421Z,96278.85
2024-01-22T21:51:06.005Z,96261.23
2024-01-22T21:53:32.492Z,96275.95
2024-01-22T21:55:58.967Z,96272.61
2024-01-22T21:58:25.990Z,96278.85
2024-01-22T22:00:52.505Z,96266.84
2024-01-22T22:03:21.073Z,96280.30
2024-01-22T22:05:48.762Z,96286.08
2024-01-22T22:08:15.515Z,96284.02
2024-01-22T22:10:43.155Z,96267.10
2024-01-22T22:13:10.180Z,96288.27
2024-01-22T22:15:38.194Z,96290.23
2024-01-22T22:18:04.940Z,96291.19
2024-01-22T22:20:32.554Z,96271.46
2024-01-22T22:22:59.383Z,96296.59
2024-01-22T22:25:26.434Z,96294.74
2024-01-22T22:27:52.894Z,96291.23
2024-01-22T22:30:19.327Z,96292.70
2024-01-22T22:32:45.842Z,96298.23
2024-01-22T22:35:12.757Z,96293.86
2024-01-22T22:37:39.153Z,96295.32
2024-01-22T22:40:06.765Z,96300.61
2024-01-22T22:42:33.309Z,96301.23
2024-01-22T22:44:59.832Z,96296.54
2024-01-22T22:47:26.327Z,96298.39
2024-01-22T22:49:52.874Z,96292.92
2024-01-22T22:52:19.488Z,96293.48
2024-01-22T22:54:46.431Z,96289.55
2024-01-22T22:57:13.118Z,96276.98
2024-01-22T22:59:39.560Z,96262.58
2024-01-22T23:02:06.145Z,96280.56
2024-01-22T23:04:32.830Z,96278.48
2024-01-22T23:06:59.350Z,96271.48
2024-01-22T23:09:25.908Z,96279.41
2024-01-22T23:11:54.664Z,96284.97
2024-01-22T23:14:21.660Z,96260.88
2024-01-22T23:16:48.174Z,96274.19
2024-01-22T23:19:14.657Z,96279.57
2024-01-22T23:21:41.185Z,96270.74
2024-01-22T23:24:08.534Z,96275.04
2024-01-22T23:26:35.236Z,96269.60
2024-01-22T23:29:01.642Z,96269.35
2024-01-22T23:31:28.050Z,96263.89
2024-01-22T23:33:54.551Z,96263.73
2024-01-22T23:36:22.810Z,96267.97
2024-01-22T23:38:49.529Z,96267.98
2024-01-22T23:41:16.047Z,96265.67
2024-01-22T23:43:42.485Z,96260.97
2024-01-22T23:46:09.006Z,96255.84
2024-01-22T23:48:35.848Z,96230.59
2024-01-22T23:51:02.369Z,96252.37
2024-01-22T23:53:28.934Z,96255.53
2024-01-22T23:55:55.408Z,96261.30
2024-01-22T23:58:21.829Z,96257.38
